Time;durP1;ratioP1;P1;durP2;ratioP2;P2;SDS_P1;SDS_P2;PMS_P1;PMS_P2;Temp;Humidity;BMP_temperature;BMP_pressure;BME280_temperature;BME280_humidity;BME280_pressure;Samples;Min_cycle;Max_cycle;Signal;HPM_P1;HPM_P2
2023/07/01 00:00:58;;;;;;;10.48;2.28;;;17.80;99.90;;;;;;4933530;29;20052;-93
2023/07/01 00:03:30;;;;;;;7.10;2.13;;;17.30;99.90;;;;;;4918477;29;20051;-93
2023/07/01 00:06:01;;;;;;;6.63;1.77;;;17.70;99.90;;;;;;4911624;29;20048;-93
2023/07/01 00:08:27;;;;;;;7.70;1.67;;;17.80;99.90;;;;;;4913588;29;20048;-93
2023/07/01 00:10:58;;;;;;;5.25;1.63;;;17.80;99.90;;;;;;4931390;29;20036;-92
2023/07/01 00:13:24;;;;;;;6.25;1.90;;;17.80;99.90;;;;;;4925500;29;20474;-93
2023/07/01 00:15:49;;;;;;;8.10;2.25;;;17.80;99.90;;;;;;4916887;29;20080;-92
2023/07/01 00:18:15;;;;;;;9.77;1.98;;;17.80;99.90;;;;;;4912376;29;20054;-94
2023/07/01 00:20:41;;;;;;;7.03;2.45;;;17.80;99.90;;;;;;4919080;29;20074;-93
2023/07/01 00:23:07;;;;;;;7.10;2.08;;;17.80;99.90;;;;;;4920237;29;20044;-93
2023/07/01 00:25:33;;;;;;;8.15;1.90;;;17.80;99.90;;;;;;4917525;29;20060;-94
2023/07/01 00:27:59;;;;;;;5.88;2.08;;;17.80;99.90;;;;;;4929098;29;20084;-94
2023/07/01 00:30:25;;;;;;;8.93;2.30;;;17.80;99.90;;;;;;4905283;29;20110;-94
2023/07/01 00:32:50;;;;;;;6.60;1.60;;;17.80;99.90;;;;;;4908766;29;20127;-94
2023/07/01 00:35:16;;;;;;;8.15;2.03;;;17.80;99.90;;;;;;4926157;29;20443;-94
2023/07/01 00:37:42;;;;;;;8.60;1.80;;;17.80;99.90;;;;;;4916805;29;20066;-94
2023/07/01 00:40:09;;;;;;;5.57;1.80;;;17.80;99.90;;;;;;4929501;29;20036;-95
2023/07/01 00:42:34;;;;;;;9.90;2.08;;;17.80;99.90;;;;;;4927909;29;20083;-94
2023/07/01 00:45:00;;;;;;;7.40;1.85;;;17.80;99.90;;;;;;4916053;29;20079;-93
2023/07/01 00:47:26;;;;;;;6.68;2.08;;;17.80;99.90;;;;;;4919106;29;20044;-94
2023/07/01 00:49:52;;;;;;;7.43;2.05;;;17.80;99.90;;;;;;4917200;29;20039;-93
2023/07/01 00:52:18;;;;;;;8.30;1.83;;;17.80;99.90;;;;;;4904188;29;20047;-93
2023/07/01 00:54:44;;;;;;;5.90;2.20;;;17.80;99.90;;;;;;4910232;29;20043;-93
2023/07/01 00:57:10;;;;;;;8.43;2.33;;;17.80;99.90;;;;;;4914253;29;20044;-93
2023/07/01 00:59:36;;;;;;;6.70;2.17;;;17.80;99.90;;;;;;4911842;29;20043;-92
2023/07/01 01:02:10;;;;;;;7.60;1.80;;;18.00;99.90;;;;;;4929572;29;20538;-93
2023/07/01 01:04:47;;;;;;;8.50;2.03;;;17.80;99.90;;;;;;4909028;29;20126;-93
2023/07/01 01:07:53;;;;;;;9.73;2.55;;;17.80;99.90;;;;;;4914612;29;20123;-93
2023/07/01 01:10:25;;;;;;;7.68;2.45;;;17.80;99.90;;;;;;4926561;29;20044;-94
2023/07/01 01:12:57;;;;;;;9.55;1.83;;;17.80;99.90;;;;;;4927745;29;20039;-91
2023/07/01 01:15:25;;;;;;;6.93;1.90;;;17.80;99.90;;;;;;4923877;29;20123;-92
2023/07/01 01:17:55;;;;;;;6.03;1.90;;;17.80;99.90;;;;;;4926464;29;20042;-93
2023/07/01 01:20:22;;;;;;;8.52;1.90;;;17.80;99.90;;;;;;4936664;29;20063;-92
2023/07/01 01:23:03;;;;;;;6.80;2.40;;;17.80;99.90;;;;;;4924273;29;20035;-93
2023/07/01 01:25:42;;;;;;;8.30;2.05;;;17.80;99.90;;;;;;4911694;29;20062;-93
2023/07/01 01:28:09;;;;;;;7.80;2.13;;;17.70;99.90;;;;;;4909288;29;20134;-94
2023/07/01 01:30:34;;;;;;;7.22;2.30;;;17.70;99.90;;;;;;4925152;29;20047;-93
2023/07/01 01:33:02;;;;;;;6.47;2.15;;;17.70;99.90;;;;;;4932111;29;20044;-92
2023/07/01 01:35:28;;;;;;;7.88;1.95;;;17.70;99.90;;;;;;4938443;29;20043;-93
2023/07/01 01:38:08;;;;;;;5.82;1.77;;;17.70;99.90;;;;;;4928335;29;20032;-91
2023/07/01 01:40:42;;;;;;;11.18;2.33;;;17.70;99.90;;;;;;4930260;29;20067;-93
2023/07/01 01:43:16;;;;;;;5.57;2.10;;;17.70;99.90;;;;;;4932608;29;20043;-94
2023/07/01 01:45:45;;;;;;;;;;;17.70;99.90;;;;;;4929380;29;20086;-91
2023/07/01 01:48:14;;;;;;;12.25;3.08;;;17.70;99.90;;;;;;4929368;29;19933;-92
2023/07/01 01:50:42;;;;;;;6.50;2.00;;;17.70;99.90;;;;;;4921527;29;20047;-92
2023/07/01 01:53:10;;;;;;;10.05;2.83;;;17.60;99.90;;;;;;4910702;29;20056;-91
2023/07/01 01:55:37;;;;;;;7.53;3.00;;;17.60;99.90;;;;;;4934101;29;20127;-93
2023/07/01 01:58:03;;;;;;;8.95;3.13;;;17.60;99.90;;;;;;4925488;29;20068;-92
2023/07/01 02:00:33;;;;;;;5.53;2.40;;;17.50;99.90;;;;;;4920419;29;20130;-92
2023/07/01 02:02:59;;;;;;;9.63;3.40;;;17.50;99.90;;;;;;4931140;29;20040;-92
2023/07/01 02:05:26;;;;;;;11.32;3.45;;;17.40;99.90;;;;;;4930353;29;20036;-93
2023/07/01 02:07:52;;;;;;;8.20;3.00;;;17.30;99.90;;;;;;4904607;29;20036;-93
2023/07/01 02:10:19;;;;;;;6.18;2.72;;;17.30;99.90;;;;;;4903596;29;20091;-92
2023/07/01 02:12:45;;;;;;;9.02;2.95;;;17.10;99.90;;;;;;4925372;29;20041;-91
2023/07/01 02:15:13;;;;;;;9.55;2.90;;;17.10;99.90;;;;;;4901591;29;20240;-92
2023/07/01 02:17:39;;;;;;;9.50;3.95;;;17.10;99.90;;;;;;4922332;29;20047;-92
2023/07/01 02:20:06;;;;;;;8.90;3.00;;;17.00;99.90;;;;;;4901120;29;20040;-93
2023/07/01 02:22:32;;;;;;;7.85;3.13;;;16.90;99.90;;;;;;4917141;29;20040;-93
2023/07/01 02:24:58;;;;;;;7.32;3.13;;;16.90;99.90;;;;;;4927447;29;20040;-92
2023/07/01 02:27:24;;;;;;;8.48;3.30;;;16.90;99.90;;;;;;4895259;29;20119;-92
2023/07/01 02:29:50;;;;;;;6.38;2.95;;;16.90;99.90;;;;;;4901700;29;20123;-91
2023/07/01 02:32:16;;;;;;;8.77;2.90;;;16.90;99.90;;;;;;4906065;29;20032;-93
2023/07/01 02:34:41;;;;;;;8.40;3.28;;;16.90;99.90;;;;;;4900607;29;20080;-91
2023/07/01 02:37:07;;;;;;;9.35;3.38;;;16.90;99.90;;;;;;4927203;29;20500;-93
2023/07/01 02:39:33;;;;;;;7.13;3.10;;;16.90;99.90;;;;;;4902968;29;20130;-91
2023/07/01 02:41:58;;;;;;;11.48;3.90;;;16.90;99.90;;;;;;4920899;29;20051;-91
2023/07/01 02:44:24;;;;;;;9.88;3.70;;;16.90;99.90;;;;;;4930888;29;20117;-91
2023/07/01 02:46:50;;;;;;;7.53;3.30;;;16.90;99.90;;;;;;4910760;29;20440;-91
2023/07/01 02:49:16;;;;;;;6.45;3.15;;;17.00;99.90;;;;;;4906508;29;20103;-92
2023/07/01 02:51:41;;;;;;;6.72;3.38;;;16.90;99.90;;;;;;4929722;29;20487;-91
2023/07/01 02:54:10;;;;;;;16.88;3.90;;;16.90;99.90;;;;;;4929882;29;20071;-91
2023/07/01 02:56:36;;;;;;;11.15;3.58;;;17.00;99.90;;;;;;4907444;29;20115;-92
2023/07/01 02:59:03;;;;;;;6.85;3.70;;;17.00;99.90;;;;;;4925979;29;20441;-91
2023/07/01 03:01:29;;;;;;;7.97;3.78;;;17.00;99.90;;;;;;4912939;29;20050;-91
2023/07/01 03:03:56;;;;;;;9.65;4.13;;;17.00;99.90;;;;;;4915270;29;20034;-91
2023/07/01 03:06:21;;;;;;;8.90;3.55;;;17.00;99.90;;;;;;4926626;29;20052;-92
2023/07/01 03:08:47;;;;;;;8.98;3.92;;;17.00;99.90;;;;;;4910869;29;20070;-92
2023/07/01 03:11:13;;;;;;;9.38;4.03;;;17.00;99.90;;;;;;4912591;29;20076;-91
2023/07/01 03:13:39;;;;;;;10.90;3.80;;;17.00;99.90;;;;;;4910962;29;20127;-91
2023/07/01 03:16:06;;;;;;;9.70;3.40;;;16.90;99.90;;;;;;4929312;29;20039;-91
2023/07/01 03:18:35;;;;;;;10.90;3.53;;;17.00;99.90;;;;;;4919263;29;20047;-91
2023/07/01 03:21:02;;;;;;;7.20;3.00;;;16.90;99.90;;;;;;4914901;29;20131;-91
2023/07/01 03:23:29;;;;;;;8.07;3.40;;;16.90;99.90;;;;;;4909902;29;20047;-91
2023/07/01 03:25:55;;;;;;;8.20;3.50;;;17.00;99.90;;;;;;4932454;29;20078;-91
2023/07/01 03:28:20;;;;;;;6.22;3.20;;;16.90;99.90;;;;;;4931715;29;20435;-91
2023/07/01 03:30:46;;;;;;;6.72;3.00;;;16.90;99.90;;;;;;4903302;29;20099;-90
2023/07/01 03:33:12;;;;;;;8.70;3.65;;;16.90;99.90;;;;;;4896745;29;20361;-90
2023/07/01 03:35:38;;;;;;;7.55;3.63;;;16.90;99.90;;;;;;4931523;29;20051;-90
2023/07/01 03:38:04;;;;;;;10.30;4.22;;;16.80;99.90;;;;;;4914822;29;20067;-90
2023/07/01 03:40:30;;;;;;;10.45;3.50;;;16.80;99.90;;;;;;4934099;29;20090;-90
2023/07/01 03:42:56;;;;;;;5.97;4.00;;;16.80;99.90;;;;;;4911156;29;20047;-90
2023/07/01 03:45:21;;;;;;;6.55;3.67;;;16.70;99.90;;;;;;4907151;29;20395;-90
2023/07/01 03:47:47;;;;;;;9.15;4.10;;;16.70;99.90;;;;;;4897529;29;20044;-90
2023/07/01 03:50:14;;;;;;;10.13;4.40;;;16.60;99.90;;;;;;4927630;29;20040;-90
2023/07/01 03:52:41;;;;;;;7.38;4.40;;;16.60;99.90;;;;;;4918039;29;20051;-90
2023/07/01 03:55:11;;;;;;;11.68;4.15;;;16.50;99.90;;;;;;4906683;29;20095;-91
2023/07/01 03:57:37;;;;;;;9.48;4.00;;;16.40;99.90;;;;;;4896649;29;20048;-91
2023/07/01 04:00:17;;;;;;;9.00;3.83;;;16.40;99.90;;;;;;4899791;29;20474;-90
2023/07/01 04:02:48;;;;;;;9.65;3.55;;;16.40;99.90;;;;;;4929808;29;20051;-89
2023/07/01 04:05:15;;;;;;;9.52;3.63;;;16.40;99.90;;;;;;4912155;29;20048;-89
2023/07/01 04:07:43;;;;;;;8.45;3.95;;;16.40;99.90;;;;;;4908090;29;20055;-90
2023/07/01 04:10:10;;;;;;;8.55;3.45;;;16.30;99.90;;;;;;4911802;29;20099;-91
2023/07/01 04:12:37;;;;;;;8.25;3.55;;;16.30;99.90;;;;;;4918185;29;20454;-90
2023/07/01 04:15:10;;;;;;;6.65;3.60;;;16.30;99.90;;;;;;4915323;29;20055;-91
2023/07/01 04:17:39;;;;;;;10.40;4.15;;;16.30;99.90;;;;;;4927769;29;20047;-90
2023/07/01 04:20:06;;;;;;;7.78;4.10;;;16.20;99.90;;;;;;4900536;29;20103;-91
2023/07/01 04:22:32;;;;;;;6.95;3.78;;;16.30;99.90;;;;;;4912580;29;20048;-91
2023/07/01 04:24:58;;;;;;;6.85;3.70;;;16.30;99.90;;;;;;4934210;29;20467;-91
2023/07/01 04:27:23;;;;;;;7.05;3.03;;;16.30;99.90;;;;;;4912322;29;20118;-90
2023/07/01 04:29:49;;;;;;;8.63;3.97;;;16.30;99.90;;;;;;4918225;29;21539;-90
2023/07/01 04:32:15;;;;;;;6.55;3.05;;;16.30;99.90;;;;;;4926101;29;20047;-91
2023/07/01 04:34:40;;;;;;;10.95;3.63;;;16.30;99.90;;;;;;4899205;29;20040;-90
2023/07/01 04:37:06;;;;;;;9.57;3.33;;;16.30;99.90;;;;;;4923653;29;20184;-91
2023/07/01 04:39:32;;;;;;;6.85;3.38;;;16.30;99.90;;;;;;4909279;29;20197;-90
2023/07/01 04:41:58;;;;;;;9.00;3.35;;;16.30;99.90;;;;;;4927817;29;20338;-90
2023/07/01 04:44:24;;;;;;;7.50;3.20;;;16.30;99.90;;;;;;4921032;29;20035;-90
2023/07/01 04:46:53;;;;;;;7.18;3.17;;;16.40;99.90;;;;;;4900227;29;20044;-90
2023/07/01 04:49:18;;;;;;;6.85;3.58;;;16.40;99.90;;;;;;4926645;29;20454;-90
2023/07/01 04:51:44;;;;;;;7.45;3.75;;;16.40;99.90;;;;;;4931263;29;20126;-90
2023/07/01 04:54:10;;;;;;;10.20;3.80;;;16.40;99.90;;;;;;4917137;29;20836;-90
2023/07/01 04:56:36;;;;;;;6.80;3.50;;;16.40;99.90;;;;;;4934874;29;20031;-89
2023/07/01 04:59:02;;;;;;;11.00;4.00;;;16.40;99.90;;;;;;4911240;29;20542;-89
2023/07/01 05:01:28;;;;;;;6.30;3.17;;;16.40;99.90;;;;;;4914461;29;20047;-89
2023/07/01 05:03:54;;;;;;;10.35;4.40;;;16.50;99.90;;;;;;4891012;29;20090;-89
2023/07/01 05:06:19;;;;;;;7.32;4.10;;;16.50;99.90;;;;;;4927089;29;20047;-90
2023/07/01 05:08:45;;;;;;;8.73;3.50;;;16.50;99.90;;;;;;4929780;29;20048;-89
2023/07/01 05:11:11;;;;;;;7.70;3.28;;;16.40;99.90;;;;;;4913763;29;20040;-89
2023/07/01 05:13:37;;;;;;;10.05;4.40;;;16.50;99.90;;;;;;4934230;29;20090;-90
2023/07/01 05:16:03;;;;;;;6.22;3.33;;;16.50;99.90;;;;;;4901014;29;20083;-89
2023/07/01 05:18:29;;;;;;;9.50;3.70;;;16.50;99.90;;;;;;4917418;29;20133;-90
2023/07/01 05:20:55;;;;;;;9.48;3.50;;;16.50;99.90;;;;;;4893438;29;20040;-91
2023/07/01 05:23:20;;;;;;;10.02;4.07;;;16.50;99.90;;;;;;4931880;29;20046;-90
2023/07/01 05:25:47;;;;;;;7.88;3.97;;;16.50;99.90;;;;;;4929518;29;20067;-90
2023/07/01 05:28:12;;;;;;;10.15;3.72;;;16.50;99.90;;;;;;4928199;29;20484;-90
2023/07/01 05:30:38;;;;;;;9.48;4.40;;;16.60;99.90;;;;;;4930659;29;20130;-88
2023/07/01 05:33:04;;;;;;;7.63;4.00;;;16.60;99.90;;;;;;4910695;29;20035;-91
2023/07/01 05:35:30;;;;;;;9.45;3.20;;;16.60;99.90;;;;;;4900563;29;20063;-87
2023/07/01 05:37:56;;;;;;;7.55;3.58;;;16.60;99.90;;;;;;4936482;29;20091;-88
2023/07/01 05:40:21;;;;;;;9.32;4.03;;;16.60;99.90;;;;;;4916568;29;20090;-88
2023/07/01 05:42:47;;;;;;;6.68;3.65;;;16.60;99.90;;;;;;4898986;29;20098;-89
2023/07/01 05:45:13;;;;;;;8.10;4.30;;;16.70;99.90;;;;;;4920256;29;20055;-88
2023/07/01 05:47:39;;;;;;;6.45;3.70;;;16.70;99.90;;;;;;4896290;29;20483;-89
2023/07/01 05:50:07;;;;;;;9.88;3.72;;;16.70;99.90;;;;;;4933113;29;20043;-88
2023/07/01 05:52:33;;;;;;;7.32;4.07;;;16.70;99.90;;;;;;4910561;29;20499;-86
2023/07/01 05:54:58;;;;;;;10.48;4.07;;;16.70;99.90;;;;;;4931003;29;20032;-88
2023/07/01 05:57:24;;;;;;;6.38;3.70;;;16.70;99.90;;;;;;4905731;29;20400;-87
2023/07/01 05:59:50;;;;;;;8.65;4.18;;;16.80;99.90;;;;;;4930037;29;20036;-89
2023/07/01 06:02:15;;;;;;;8.80;4.25;;;16.80;99.90;;;;;;4926973;29;20087;-89
2023/07/01 06:04:41;;;;;;;7.40;3.88;;;16.80;99.90;;;;;;4922206;29;20039;-89
2023/07/01 06:07:07;;;;;;;8.57;4.28;;;16.80;99.90;;;;;;4914172;29;20048;-88
2023/07/01 06:09:32;;;;;;;9.38;4.25;;;16.80;99.90;;;;;;4910963;29;20443;-87
2023/07/01 06:11:58;;;;;;;8.88;4.32;;;16.80;99.90;;;;;;4930267;29;20043;-85
2023/07/01 06:14:24;;;;;;;8.27;4.25;;;16.90;99.90;;;;;;4929650;29;20479;-87
2023/07/01 06:16:49;;;;;;;10.93;4.00;;;16.90;99.90;;;;;;4908879;29;20076;-86
2023/07/01 06:19:15;;;;;;;8.32;4.05;;;16.90;99.90;;;;;;4931663;29;20036;-87
2023/07/01 06:21:41;;;;;;;9.55;4.18;;;16.90;99.90;;;;;;4930586;29;20040;-87
2023/07/01 06:24:07;;;;;;;8.38;3.97;;;16.90;99.90;;;;;;4928891;29;20054;-86
2023/07/01 06:26:32;;;;;;;8.80;4.28;;;17.00;99.90;;;;;;4930838;29;20046;-87
2023/07/01 06:28:58;;;;;;;7.72;4.30;;;17.00;99.90;;;;;;4911959;29;20376;-86
2023/07/01 06:31:24;;;;;;;8.13;4.43;;;17.00;99.90;;;;;;4911280;29;20484;-86
2023/07/01 06:33:49;;;;;;;10.23;4.65;;;17.00;99.90;;;;;;4922951;29;20048;-87
2023/07/01 06:36:18;;;;;;;7.13;4.55;;;17.00;99.90;;;;;;4927108;29;20127;-85
2023/07/01 06:38:46;;;;;;;9.40;4.63;;;16.90;99.90;;;;;;4931051;29;20478;-85
2023/07/01 06:41:12;;;;;;;8.80;4.88;;;17.00;99.90;;;;;;4924507;29;20044;-84
2023/07/01 06:43:41;;;;;;;9.30;4.75;;;16.90;99.90;;;;;;4933110;29;20406;-83
2023/07/01 06:46:07;;;;;;;10.93;5.55;;;16.90;99.90;;;;;;4911985;29;20040;-83
2023/07/01 06:48:33;;;;;;;10.25;5.28;;;16.90;99.90;;;;;;4911683;29;20111;-84
2023/07/01 06:50:59;;;;;;;11.48;5.38;;;16.90;99.90;;;;;;4935146;29;20036;-83
2023/07/01 06:53:25;;;;;;;7.65;5.53;;;16.80;99.90;;;;;;4919039;29;20043;-83
2023/07/01 06:55:50;;;;;;;8.23;5.43;;;16.80;99.90;;;;;;4936705;29;20044;-83
2023/07/01 06:58:16;;;;;;;8.68;5.45;;;16.80;99.90;;;;;;4904581;29;20040;-84
2023/07/01 07:00:43;;;;;;;7.65;5.47;;;16.80;99.90;;;;;;4912683;29;20065;-84
2023/07/01 07:03:09;;;;;;;7.25;4.85;;;16.80;99.90;;;;;;4914742;29;20091;-84
2023/07/01 07:05:34;;;;;;;8.02;5.53;;;16.90;99.90;;;;;;4916570;29;20482;-84
2023/07/01 07:08:00;;;;;;;9.05;5.75;;;16.90;99.90;;;;;;4904696;29;20039;-84
2023/07/01 07:10:26;;;;;;;9.13;5.32;;;16.90;99.90;;;;;;4931872;29;20099;-83
2023/07/01 07:12:51;;;;;;;8.57;5.22;;;16.90;99.90;;;;;;4933574;29;20086;-83
2023/07/01 07:15:17;;;;;;;6.85;5.35;;;16.90;99.90;;;;;;4919648;29;20063;-84
2023/07/01 07:17:43;;;;;;;6.03;3.97;;;16.90;99.90;;;;;;4923153;29;20048;-84
2023/07/01 07:20:10;;;;;;;5.63;4.32;;;16.80;99.90;;;;;;4915100;29;20134;-84
2023/07/01 07:22:36;;;;;;;8.65;4.80;;;16.90;99.90;;;;;;4914396;29;20043;-85
2023/07/01 07:25:01;;;;;;;6.78;4.70;;;16.90;99.90;;;;;;4919718;29;20109;-85
2023/07/01 07:27:27;;;;;;;8.27;4.70;;;16.90;99.90;;;;;;4931797;29;20040;-85
2023/07/01 07:29:53;;;;;;;7.07;4.82;;;17.00;99.90;;;;;;4914671;29;20071;-86
2023/07/01 07:32:18;;;;;;;6.45;4.82;;;17.00;99.90;;;;;;4912283;29;20043;-87
2023/07/01 07:34:44;;;;;;;7.13;4.95;;;17.00;99.90;;;;;;4910875;29;20135;-90
2023/07/01 07:37:10;;;;;;;6.15;3.75;;;17.10;99.90;;;;;;4923942;29;20071;-86
2023/07/01 07:39:36;;;;;;;6.97;5.05;;;17.10;99.90;;;;;;4910362;29;20232;-90
2023/07/01 07:42:01;;;;;;;7.07;3.88;;;17.20;99.90;;;;;;4933103;29;20043;-92
2023/07/01 07:44:27;;;;;;;6.18;4.93;;;17.20;99.90;;;;;;4922703;29;20458;-89
2023/07/01 07:46:54;;;;;;;7.15;4.28;;;17.20;99.90;;;;;;4932952;29;20035;-89
2023/07/01 07:49:20;;;;;;;5.70;4.30;;;17.30;99.90;;;;;;4927562;29;20107;-90
2023/07/01 07:51:46;;;;;;;6.47;4.25;;;17.30;99.90;;;;;;4924170;29;20036;-89
2023/07/01 07:54:12;;;;;;;8.30;3.95;;;17.20;99.90;;;;;;4907858;29;20084;-89
2023/07/01 07:56:37;;;;;;;6.05;4.15;;;17.30;99.90;;;;;;4931897;29;20044;-89
2023/07/01 07:59:03;;;;;;;6.30;4.20;;;17.30;99.90;;;;;;4909825;29;20043;-88
2023/07/01 08:01:28;;;;;;;7.78;3.80;;;17.30;99.90;;;;;;4934875;29;20051;-88
2023/07/01 08:03:54;;;;;;;7.47;4.47;;;17.40;99.90;;;;;;4916445;29;20043;-89
2023/07/01 08:06:20;;;;;;;6.60;4.25;;;17.40;99.90;;;;;;4933840;29;20043;-89
2023/07/01 08:08:45;;;;;;;6.45;4.18;;;17.40;99.90;;;;;;4903683;29;20398;-89
2023/07/01 08:11:11;;;;;;;7.80;4.75;;;17.40;99.90;;;;;;4931702;29;20047;-88
2023/07/01 08:13:37;;;;;;;6.38;3.83;;;17.30;99.90;;;;;;4918782;29;20039;-89
2023/07/01 08:16:04;;;;;;;7.90;5.22;;;17.40;99.90;;;;;;4927492;29;20399;-88
2023/07/01 08:18:31;;;;;;;8.15;5.25;;;17.40;99.90;;;;;;4931585;29;20379;-88
2023/07/01 08:20:56;;;;;;;6.75;5.15;;;17.50;99.90;;;;;;4916006;29;20055;-88
2023/07/01 08:23:22;;;;;;;7.00;5.20;;;17.50;99.90;;;;;;4928467;29;20414;-89
2023/07/01 08:25:48;;;;;;;9.05;5.45;;;17.50;99.90;;;;;;4918088;29;20131;-88
2023/07/01 08:28:13;;;;;;;6.70;4.90;;;17.50;99.90;;;;;;4927967;29;20130;-89
2023/07/01 08:30:39;;;;;;;8.35;5.28;;;17.60;99.90;;;;;;4897258;29;20044;-89
2023/07/01 08:33:05;;;;;;;8.48;4.70;;;17.60;99.90;;;;;;4904829;29;20068;-90
2023/07/01 08:35:31;;;;;;;7.63;4.85;;;17.70;99.90;;;;;;4901309;29;20134;-90
2023/07/01 08:37:56;;;;;;;6.85;4.43;;;17.70;99.90;;;;;;4915743;29;20082;-90
2023/07/01 08:40:22;;;;;;;7.20;4.38;;;17.80;99.90;;;;;;4905736;29;20047;-89
2023/07/01 08:42:50;;;;;;;6.55;4.63;;;17.80;99.90;;;;;;4910564;29;20044;-89
2023/07/01 08:45:16;;;;;;;6.03;4.22;;;17.80;99.90;;;;;;4906469;29;20377;-90
2023/07/01 08:47:42;;;;;;;5.80;4.00;;;17.80;99.90;;;;;;4915905;29;20131;-89
2023/07/01 08:50:08;;;;;;;6.22;4.57;;;17.80;99.90;;;;;;4931397;29;20047;-89
2023/07/01 08:52:46;;;;;;;8.45;4.78;;;17.80;99.90;;;;;;4934339;29;20098;-89
2023/07/01 08:55:12;;;;;;;8.40;5.40;;;17.90;99.90;;;;;;4930067;29;20047;-89
2023/07/01 08:57:39;;;;;;;7.68;4.63;;;17.90;99.90;;;;;;4899490;29;20144;-88
2023/07/01 09:00:10;;;;;;;6.22;4.57;;;17.90;99.90;;;;;;4915147;29;20407;-89
2023/07/01 09:02:37;;;;;;;5.22;3.75;;;18.00;99.90;;;;;;4917785;29;20051;-90
2023/07/01 09:05:04;;;;;;;7.63;4.35;;;17.90;99.90;;;;;;4934154;29;20067;-88
2023/07/01 09:07:29;;;;;;;6.20;5.10;;;17.90;99.90;;;;;;4912636;29;20051;-88
2023/07/01 09:10:00;;;;;;;6.70;4.90;;;17.90;99.90;;;;;;4924976;29;20048;-89
2023/07/01 09:12:30;;;;;;;8.00;5.60;;;17.90;99.90;;;;;;4907224;29;20040;-88
2023/07/01 09:15:07;;;;;;;7.07;5.05;;;17.90;99.90;;;;;;4911927;29;20482;-88
2023/07/01 09:17:35;;;;;;;5.90;4.47;;;17.90;99.90;;;;;;4916073;29;20558;-88
2023/07/01 09:20:05;;;;;;;7.68;5.30;;;17.90;99.90;;;;;;4911004;29;20105;-88
2023/07/01 09:22:32;;;;;;;9.07;5.50;;;17.90;99.90;;;;;;4912214;29;20045;-87
2023/07/01 09:24:58;;;;;;;7.40;5.35;;;17.90;99.90;;;;;;4902219;29;20487;-88
2023/07/01 09:27:46;;;;;;;10.45;6.38;;;17.90;99.90;;;;;;4927814;29;20043;-88
2023/07/01 09:30:25;;;;;;;7.57;5.95;;;18.00;99.90;;;;;;4902874;29;20112;-88
2023/07/01 09:32:51;;;;;;;6.28;5.32;;;18.10;99.90;;;;;;4925707;29;20084;-88
2023/07/01 09:35:18;;;;;;;8.57;6.05;;;18.10;99.90;;;;;;4929206;29;20040;-87
2023/07/01 09:37:43;;;;;;;6.35;5.07;;;18.20;99.90;;;;;;4929744;29;20035;-87
2023/07/01 09:40:27;;;;;;;7.90;6.15;;;18.10;99.90;;;;;;4910085;29;20050;-87
2023/07/01 09:42:55;;;;;;;7.75;6.43;;;18.20;99.90;;;;;;4925008;29;20063;-88
2023/07/01 09:45:21;;;;;;;7.05;5.78;;;18.10;99.90;;;;;;4930338;29;20130;-88
2023/07/01 09:47:54;;;;;;;7.55;6.32;;;18.10;99.90;;;;;;4907772;29;20154;-88
2023/07/01 09:50:29;;;;;;;6.78;5.10;;;18.10;99.90;;;;;;4906505;29;20075;-88
2023/07/01 09:52:56;;;;;;;6.60;4.95;;;18.10;99.90;;;;;;4910920;29;20051;-88
2023/07/01 09:55:23;;;;;;;5.70;4.57;;;18.20;99.90;;;;;;4906909;29;20063;-87
2023/07/01 09:57:49;;;;;;;5.82;4.72;;;18.20;99.90;;;;;;4905410;29;20423;-87
2023/07/01 10:00:15;;;;;;;8.45;5.03;;;18.20;99.90;;;;;;4931714;29;20061;-87
2023/07/01 10:02:45;;;;;;;7.00;4.78;;;18.20;99.90;;;;;;4908291;29;20058;-87
2023/07/01 10:05:12;;;;;;;6.38;4.80;;;18.20;99.90;;;;;;4928652;29;20130;-88
2023/07/01 10:07:42;;;;;;;6.53;4.65;;;18.20;99.90;;;;;;4930041;29;20517;-88
2023/07/01 10:10:21;;;;;;;6.57;4.65;;;18.20;99.90;;;;;;4909867;29;20605;-88
2023/07/01 10:12:47;;;;;;;6.18;4.70;;;18.30;99.90;;;;;;4907037;29;20051;-86
2023/07/01 10:15:16;;;;;;;7.35;5.07;;;18.40;99.90;;;;;;4911184;29;20122;-87
2023/07/01 10:17:50;;;;;;;6.10;4.65;;;18.40;99.90;;;;;;4909070;29;20044;-87
2023/07/01 10:20:34;;;;;;;6.85;5.25;;;18.40;99.90;;;;;;4916198;29;20032;-86
2023/07/01 10:23:02;;;;;;;6.47;5.03;;;18.40;99.90;;;;;;4912764;29;20075;-87
2023/07/01 10:25:30;;;;;;;7.00;4.70;;;18.40;99.90;;;;;;4903510;29;20071;-87
2023/07/01 10:28:02;;;;;;;7.15;5.20;;;18.50;99.90;;;;;;4931157;29;20645;-88
2023/07/01 10:30:46;;;;;;;7.30;5.75;;;18.50;99.90;;;;;;4929383;29;20481;-87
2023/07/01 10:33:27;;;;;;;6.97;5.38;;;18.50;99.90;;;;;;4915980;29;20046;-88
2023/07/01 10:36:09;;;;;;;7.30;5.07;;;18.50;99.90;;;;;;4908550;29;20051;-87
2023/07/01 10:38:37;;;;;;;6.93;4.95;;;18.60;99.90;;;;;;4931782;29;20050;-87
2023/07/01 10:41:03;;;;;;;7.82;6.13;;;18.50;99.90;;;;;;4903907;29;20095;-88
2023/07/01 10:43:33;;;;;;;8.25;6.00;;;18.60;99.90;;;;;;4919819;29;20118;-87
2023/07/01 10:46:23;;;;;;;6.85;4.60;;;18.60;99.90;;;;;;4924069;29;20137;-88
2023/07/01 10:49:09;;;;;;;8.95;6.40;;;18.50;99.90;;;;;;4930254;29;20044;-87
2023/07/01 10:51:43;;;;;;;6.43;4.70;;;18.50;99.90;;;;;;4934263;29;20131;-87
2023/07/01 10:54:09;;;;;;;7.22;5.75;;;18.60;99.90;;;;;;4919179;29;20056;-87
2023/07/01 10:56:38;;;;;;;6.53;4.95;;;18.60;99.90;;;;;;4933215;29;20064;-88
2023/07/01 10:59:29;;;;;;;7.25;5.30;;;18.60;99.90;;;;;;4900761;29;20139;-88
2023/07/01 11:01:57;;;;;;;5.97;4.18;;;18.70;99.90;;;;;;4914738;29;20035;-88
2023/07/01 11:04:51;;;;;;;5.70;4.05;;;18.70;99.90;;;;;;4913970;29;20082;-87
2023/07/01 11:07:27;;;;;;;5.70;3.15;;;18.80;99.90;;;;;;4927118;29;20054;-87
2023/07/01 11:09:54;;;;;;;4.70;2.78;;;18.90;99.90;;;;;;4930097;29;20430;-87
2023/07/01 11:12:21;;;;;;;4.57;2.45;;;18.90;99.90;;;;;;4912051;29;20130;-87
2023/07/01 11:14:47;;;;;;;3.33;2.10;;;18.90;99.90;;;;;;4906447;29;20499;-87
2023/07/01 11:17:13;;;;;;;3.60;1.95;;;18.90;99.90;;;;;;4901820;29;20391;-86
2023/07/01 11:19:39;;;;;;;5.03;2.25;;;18.90;99.90;;;;;;4935098;29;20066;-87
2023/07/01 11:22:05;;;;;;;2.05;1.20;;;19.00;99.90;;;;;;4906814;29;20554;-87
2023/07/01 11:24:32;;;;;;;2.13;1.17;;;19.00;99.90;;;;;;4906443;29;20056;-88
2023/07/01 11:27:02;;;;;;;3.78;1.10;;;19.00;99.90;;;;;;4914000;29;20078;-87
2023/07/01 11:29:29;;;;;;;2.50;1.27;;;19.00;99.90;;;;;;4905703;29;20092;-87
2023/07/01 11:32:01;;;;;;;2.22;1.20;;;19.00;99.90;;;;;;4903518;29;20435;-85
2023/07/01 11:34:28;;;;;;;2.67;1.10;;;19.00;99.90;;;;;;4919892;29;20187;-86
2023/07/01 11:36:55;;;;;;;2.47;1.20;;;19.10;99.90;;;;;;4930815;29;20036;-85
2023/07/01 11:39:21;;;;;;;2.33;1.00;;;19.10;99.90;;;;;;4930697;29;20482;-87
2023/07/01 11:41:50;;;;;;;1.33;0.85;;;19.20;99.90;;;;;;4930971;29;20040;-86
2023/07/01 11:44:19;;;;;;;1.70;0.70;;;19.30;99.90;;;;;;4920238;29;20046;-83
2023/07/01 11:46:46;;;;;;;3.50;1.00;;;19.50;99.90;;;;;;4927052;29;20051;-84
2023/07/01 11:49:31;;;;;;;1.67;0.70;;;19.70;99.90;;;;;;4912786;29;20048;-84
2023/07/01 11:52:01;;;;;;;2.55;0.88;;;19.80;99.90;;;;;;4933952;29;20167;-84
2023/07/01 11:54:39;;;;;;;2.25;0.70;;;19.80;99.90;;;;;;4904603;29;20470;-84
2023/07/01 11:57:14;;;;;;;1.55;0.80;;;19.80;99.90;;;;;;4930855;29;20048;-84
2023/07/01 11:59:58;;;;;;;1.45;0.70;;;19.70;99.90;;;;;;4930962;29;20066;-85
2023/07/01 12:02:34;;;;;;;1.73;0.73;;;19.70;99.90;;;;;;4916312;29;20106;-90
2023/07/01 12:05:00;;;;;;;1.65;0.82;;;19.90;99.90;;;;;;4920838;29;20047;-94
2023/07/01 12:07:26;;;;;;;2.17;0.80;;;20.00;99.90;;;;;;4929746;29;20172;-88
2023/07/01 12:09:52;;;;;;;2.20;1.10;;;20.20;99.90;;;;;;4925675;29;20051;-90
2023/07/01 12:12:33;;;;;;;5.25;1.42;;;20.50;99.90;;;;;;4905355;29;20032;-87
2023/07/01 12:15:09;;;;;;;2.72;1.40;;;20.60;99.90;;;;;;4928058;29;20078;-85
2023/07/01 12:17:36;;;;;;;3.22;2.20;;;20.80;99.90;;;;;;4931753;29;20054;-87
2023/07/01 12:20:06;;;;;;;2.97;1.63;;;20.80;99.90;;;;;;4932615;29;20162;-83
2023/07/01 12:22:31;;;;;;;5.18;2.97;;;20.90;99.90;;;;;;4929140;29;20080;-84
2023/07/01 12:24:58;;;;;;;4.97;2.90;;;21.00;99.90;;;;;;4930894;29;20082;-83
2023/07/01 12:27:24;;;;;;;4.18;2.58;;;21.10;99.90;;;;;;4929090;29;20040;-84
2023/07/01 12:29:50;;;;;;;5.35;3.15;;;21.10;99.90;;;;;;4910143;29;20182;-84
2023/07/01 12:32:16;;;;;;;6.72;2.90;;;21.00;99.90;;;;;;4915243;29;20028;-84
2023/07/01 12:34:42;;;;;;;5.15;2.58;;;20.90;99.90;;;;;;4928200;29;20507;-84
2023/07/01 12:37:08;;;;;;;4.60;2.45;;;20.80;99.90;;;;;;4910746;29;20039;-84
2023/07/01 12:39:36;;;;;;;7.88;3.45;;;20.70;99.90;;;;;;4930214;29;20055;-83
2023/07/01 12:42:02;;;;;;;5.82;3.90;;;20.70;99.90;;;;;;4912484;29;20178;-83
2023/07/01 12:44:28;;;;;;;7.20;4.00;;;20.70;99.90;;;;;;4911107;29;20063;-83
2023/07/01 12:46:54;;;;;;;5.88;4.30;;;20.70;99.90;;;;;;4921700;29;20392;-83
2023/07/01 12:49:21;;;;;;;7.38;4.38;;;20.70;99.90;;;;;;4913309;29;20078;-83